createdAt,value
2017-11-14T00:00:01.528Z,84.03
2017-11-14T00:01:01.539Z,83.84
2017-11-14T00:02:01.887Z,84.22
2017-11-14T00:03:01.898Z,84.12
2017-11-14T00:04:01.920Z,84.22
2017-11-14T00:05:01.918Z,84.22
2017-11-14T00:06:01.933Z,84.59
2017-11-14T00:07:01.941Z,84.22
2017-11-14T00:08:01.958Z,84.59
2017-11-14T00:09:01.981Z,84.41
2017-11-14T00:10:01.981Z,84.59
2017-11-14T00:11:01.996Z,84.31
2017-11-14T00:12:02.017Z,84.12
2017-11-14T00:13:02.017Z,84.78
2017-11-14T00:14:02.038Z,84.12
2017-11-14T00:15:02.042Z,84.22
2017-11-14T00:16:02.048Z,84.88
2017-11-14T00:17:02.059Z,84.98
2017-11-14T00:18:02.074Z,84.12
2017-11-14T00:19:02.083Z,84.12
2017-11-14T00:20:02.096Z,84.12
2017-11-14T00:21:02.103Z,84.31
2017-11-14T00:22:01.781Z,84.59
2017-11-14T00:23:02.123Z,84.41
2017-11-14T00:24:02.140Z,84.31
2017-11-14T00:25:02.150Z,84.22
2017-11-14T00:26:02.154Z,84.03
2017-11-14T00:27:02.173Z,84.03
2017-11-14T00:28:01.847Z,84.31
2017-11-14T00:29:02.190Z,84.03
2017-11-14T00:30:02.205Z,84.59
2017-11-14T00:31:02.217Z,84.22
2017-11-14T00:32:02.227Z,84.41
2017-11-14T00:33:01.898Z,84.22
2017-11-14T00:34:02.245Z,84.59
2017-11-14T00:35:01.923Z,84.22
2017-11-14T00:36:02.269Z,84.41
2017-11-14T00:37:02.284Z,84.12
2017-11-14T00:38:02.290Z,84.12
2017-11-14T00:39:02.300Z,84.12
2017-11-14T00:40:01.978Z,84.78
2017-11-14T00:41:02.331Z,84.78
2017-11-14T00:42:02.341Z,84.78
2017-11-14T00:43:02.011Z,84.78
2017-11-14T00:44:02.356Z,84.88
2017-11-14T00:45:02.372Z,84.78
2017-11-14T00:46:02.397Z,84.88
2017-11-14T00:47:02.389Z,84.88
2017-11-14T00:48:02.398Z,84.78
2017-11-14T00:49:02.442Z,84.69
2017-11-14T00:50:02.421Z,84.88
2017-11-14T00:51:02.436Z,84.98
2017-11-14T00:52:02.445Z,84.78
2017-11-14T00:53:02.465Z,84.88
2017-11-14T00:54:02.469Z,84.88
2017-11-14T00:55:02.477Z,84.98
2017-11-14T00:56:02.502Z,84.31
2017-11-14T00:57:02.501Z,84.98
2017-11-14T00:58:02.517Z,84.88
2017-11-14T00:59:02.187Z,84.88
2017-11-14T01:00:02.549Z,84.78
2017-11-14T01:01:02.540Z,84.88
2017-11-14T01:02:02.554Z,84.78
2017-11-14T01:03:02.228Z,84.98
2017-11-14T01:04:02.238Z,84.78
2017-11-14T01:05:02.590Z,84.12
2017-11-14T01:06:02.279Z,84.41
2017-11-14T01:07:02.275Z,84.31
2017-11-14T01:08:02.623Z,84.12
2017-11-14T01:09:02.634Z,84.31
2017-11-14T01:10:02.305Z,84.22
2017-11-14T01:11:02.319Z,84.12
2017-11-14T01:12:02.667Z,84.12
2017-11-14T01:13:02.682Z,84.12
2017-11-14T01:14:02.690Z,84.31
2017-11-14T01:15:02.361Z,84.03
2017-11-14T01:16:02.706Z,84.22
2017-11-14T01:17:02.382Z,84.22
2017-11-14T01:18:02.735Z,84.41
2017-11-14T01:19:02.743Z,84.41
2017-11-14T01:20:02.755Z,84.22
2017-11-14T01:21:02.764Z,84.41
2017-11-14T01:22:02.460Z,84.22
2017-11-14T01:23:02.786Z,84.31
2017-11-14T01:24:02.798Z,84.5
2017-11-14T01:25:02.844Z,84.03
2017-11-14T01:26:02.831Z,84.12
2017-11-14T01:27:02.837Z,84.12
2017-11-14T01:28:02.841Z,84.03
2017-11-14T01:29:02.858Z,84.22
2017-11-14T01:30:02.874Z,84.03
2017-11-14T01:31:02.885Z,84.22
2017-11-14T01:32:02.547Z,84.12
2017-11-14T01:33:02.557Z,84.03
2017-11-14T01:34:02.913Z,84.03
2017-11-14T01:35:02.918Z,84.12
2017-11-14T01:36:02.938Z,84.31
2017-11-14T01:37:02.936Z,84.12
2017-11-14T01:38:02.962Z,84.31
2017-11-14T01:39:02.979Z,84.12
2017-11-14T01:40:02.970Z,84.12
2017-11-14T01:41:02.986Z,84.12
2017-11-14T01:42:02.987Z,83.94
2017-11-14T01:43:02.997Z,83.94
2017-11-14T01:44:02.690Z,84.41
2017-11-14T01:45:02.694Z,84.41
2017-11-14T01:46:03.243Z,84.12
2017-11-14T01:47:02.706Z,84.22
2017-11-14T01:48:03.062Z,84.22
2017-11-14T01:49:03.076Z,84.41
2017-11-14T01:50:03.083Z,84.41
2017-11-14T01:51:03.090Z,84.12
2017-11-14T01:52:03.113Z,84.22
2017-11-14T01:53:02.782Z,84.78
2017-11-14T01:54:03.124Z,84.98
2017-11-14T01:55:02.797Z,84.88
2017-11-14T01:56:03.152Z,84.78
2017-11-14T01:57:03.152Z,84.69
2017-11-14T01:58:02.829Z,84.59
2017-11-14T01:59:02.844Z,84.78
2017-11-14T02:00:02.859Z,84.5
2017-11-14T02:01:03.194Z,84.41
2017-11-14T02:02:03.252Z,84.5
2017-11-14T02:03:03.218Z,84.78
2017-11-14T02:04:02.904Z,84.5
2017-11-14T02:05:02.902Z,84.31
2017-11-14T02:06:03.254Z,84.78
2017-11-14T02:07:03.263Z,84.98
2017-11-14T02:08:03.283Z,84.88
2017-11-14T02:09:03.286Z,84.5
2017-11-14T02:10:02.986Z,84.59
2017-11-14T02:11:03.316Z,84.69
2017-11-14T02:12:02.983Z,84.78
2017-11-14T02:13:02.993Z,84.59
2017-11-14T02:14:03.352Z,84.5
2017-11-14T02:15:03.352Z,84.5
2017-11-14T02:16:03.405Z,84.5
2017-11-14T02:17:03.388Z,84.59
2017-11-14T02:18:03.656Z,84.78
2017-11-14T02:19:03.434Z,84.59
2017-11-14T02:20:03.094Z,84.78
2017-11-14T02:21:03.414Z,84.78
2017-11-14T02:22:03.427Z,84.5
2017-11-14T02:23:03.439Z,84.41
2017-11-14T02:24:03.463Z,84.5
2017-11-14T02:25:03.476Z,84.69
2017-11-14T02:26:03.471Z,84.78
2017-11-14T02:27:03.482Z,84.41
2017-11-14T02:28:03.491Z,84.5
2017-11-14T02:29:03.166Z,84.41
2017-11-14T02:30:03.515Z,84.78
2017-11-14T02:31:03.522Z,84.59
2017-11-14T02:32:03.210Z,84.69
2017-11-14T02:33:03.547Z,84.59
2017-11-14T02:34:03.246Z,84.69
2017-11-14T02:35:03.568Z,84.78
2017-11-14T02:36:03.580Z,84.78
2017-11-14T02:37:03.594Z,84.5
2017-11-14T02:38:03.265Z,84.5
2017-11-14T02:39:03.618Z,84.59
2017-11-14T02:40:03.633Z,84.78
2017-11-14T02:41:03.632Z,84.59
2017-11-14T02:42:03.658Z,84.41
2017-11-14T02:43:03.656Z,84.69
2017-11-14T02:44:03.328Z,84.69
2017-11-14T02:45:03.343Z,84.98
2017-11-14T02:46:03.708Z,84.69
2017-11-14T02:47:03.693Z,85.07
2017-11-14T02:48:03.721Z,85.07
2017-11-14T02:49:03.734Z,85.26
2017-11-14T02:50:03.457Z,85.17
2017-11-14T02:51:03.754Z,85.26
2017-11-14T02:52:03.440Z,85.07
2017-11-14T02:53:03.426Z,85.07
2017-11-14T02:54:03.442Z,85.17
2017-11-14T02:55:03.788Z,85.26
2017-11-14T02:56:03.801Z,84.98
2017-11-14T02:57:03.813Z,85.26
2017-11-14T02:58:03.820Z,85.26
2017-11-14T02:59:03.830Z,84.78
2017-11-14T03:00:03.846Z,84.98
2017-11-14T03:01:03.954Z,84.59
2017-11-14T03:02:03.871Z,84.59
2017-11-14T03:03:03.879Z,84.5
2017-11-14T03:04:03.881Z,84.78
2017-11-14T03:05:03.895Z,84.69
2017-11-14T03:06:03.573Z,84.59
2017-11-14T03:07:03.948Z,84.78
2017-11-14T03:08:03.591Z,84.5
2017-11-14T03:09:03.940Z,84.78
2017-11-14T03:10:03.614Z,84.69
2017-11-14T03:11:03.958Z,84.59
2017-11-14T03:12:03.970Z,84.5
2017-11-14T03:13:03.649Z,84.5
2017-11-14T03:14:03.993Z,84.59
2017-11-14T03:15:04.007Z,84.78
2017-11-14T03:16:04.012Z,84.59
2017-11-14T03:17:03.697Z,84.78
2017-11-14T03:18:04.039Z,84.59
2017-11-14T03:19:04.044Z,84.59
2017-11-14T03:20:03.721Z,84.59
2017-11-14T03:21:04.064Z,84.41
2017-11-14T03:22:04.081Z,84.69
2017-11-14T03:23:04.130Z,84.5
2017-11-14T03:24:04.103Z,84.69
2017-11-14T03:25:04.115Z,84.59
2017-11-14T03:26:03.795Z,84.5
2017-11-14T03:27:04.132Z,84.69
2017-11-14T03:28:04.149Z,84.41
2017-11-14T03:29:04.156Z,84.59
2017-11-14T03:30:04.176Z,84.5
2017-11-14T03:31:04.188Z,84.88
2017-11-14T03:32:04.199Z,85.07
2017-11-14T03:33:04.200Z,85.07
2017-11-14T03:34:04.210Z,84.69
2017-11-14T03:35:04.222Z,84.5
2017-11-14T03:36:04.245Z,84.41
2017-11-14T03:37:04.255Z,84.5
2017-11-14T03:38:04.255Z,84.78
2017-11-14T03:39:04.268Z,84.5
2017-11-14T03:40:04.280Z,85.26
2017-11-14T03:41:04.290Z,85.45
2017-11-14T03:42:04.300Z,85.07
2017-11-14T03:43:04.016Z,84.69
2017-11-14T03:44:04.320Z,84.88
2017-11-14T03:45:04.338Z,84.5
2017-11-14T03:46:04.005Z,84.5
2017-11-14T03:47:04.364Z,84.98
2017-11-14T03:48:04.362Z,85.17
2017-11-14T03:49:04.371Z,84.5
2017-11-14T03:50:04.386Z,84.5
2017-11-14T03:51:04.074Z,84.5
2017-11-14T03:52:04.071Z,84.98
2017-11-14T03:53:04.084Z,85.17
2017-11-14T03:54:04.430Z,84.69
2017-11-14T03:55:04.445Z,84.69
2017-11-14T03:56:04.114Z,84.98
2017-11-14T03:57:04.462Z,84.69
2017-11-14T03:58:04.472Z,85.07
2017-11-14T03:59:04.485Z,85.26
2017-11-14T04:00:04.157Z,84.78
2017-11-14T04:01:04.171Z,85.26
2017-11-14T04:02:04.519Z,85.26
2017-11-14T04:03:04.191Z,85.17
2017-11-14T04:04:04.563Z,85.17
2017-11-14T04:05:04.550Z,84.98
2017-11-14T04:06:04.224Z,85.17
2017-11-14T04:07:04.648Z,85.17
2017-11-14T04:08:04.585Z,85.26
2017-11-14T04:09:04.256Z,85.26
2017-11-14T04:10:04.605Z,85.17
2017-11-14T04:11:04.619Z,85.26
2017-11-14T04:12:04.649Z,85.17
2017-11-14T04:13:04.648Z,85.07
2017-11-14T04:14:04.325Z,85.26
2017-11-14T04:15:04.661Z,85.26
2017-11-14T04:16:04.671Z,85.17
2017-11-14T04:17:04.343Z,85.17
2017-11-14T04:18:04.698Z,84.98
2017-11-14T04:19:04.365Z,85.07
2017-11-14T04:20:04.729Z,85.17
2017-11-14T04:21:04.726Z,84.98
2017-11-14T04:22:04.826Z,85.17
2017-11-14T04:23:04.430Z,85.17
2017-11-14T04:24:04.757Z,84.98
2017-11-14T04:25:04.771Z,84.88
2017-11-14T04:26:04.782Z,84.78
2017-11-14T04:27:04.815Z,84.98
2017-11-14T04:28:04.804Z,84.88
2017-11-14T04:29:04.474Z,85.17
2017-11-14T04:30:04.823Z,84.98
2017-11-14T04:31:04.494Z,84.98
2017-11-14T04:32:04.512Z,84.98
2017-11-14T04:33:04.856Z,85.17
2017-11-14T04:34:04.866Z,85.17
2017-11-14T04:35:04.878Z,85.07
2017-11-14T04:36:04.893Z,85.07
2017-11-14T04:37:04.899Z,85.07
2017-11-14T04:38:04.911Z,85.07
2017-11-14T04:39:04.586Z,85.07
2017-11-14T04:40:04.934Z,85.07
2017-11-14T04:41:04.952Z,84.98
2017-11-14T04:42:04.957Z,85.07
2017-11-14T04:43:04.963Z,85.07
2017-11-14T04:44:04.980Z,85.07
2017-11-14T04:45:04.656Z,84.98
2017-11-14T04:46:04.996Z,85.07
2017-11-14T04:47:05.010Z,85.07
2017-11-14T04:48:04.684Z,85.07
2017-11-14T04:49:05.029Z,85.17
2017-11-14T04:50:04.705Z,85.17
2017-11-14T04:51:05.055Z,84.88
2017-11-14T04:52:05.069Z,85.26
2017-11-14T04:53:05.074Z,85.26
2017-11-14T04:54:05.084Z,85.36
2017-11-14T04:55:05.107Z,85.26
2017-11-14T04:56:05.112Z,85.45
2017-11-14T04:57:05.121Z,85.45
2017-11-14T04:58:05.131Z,85.17
2017-11-14T04:59:04.806Z,85.55
2017-11-14T05:00:04.821Z,85.45
2017-11-14T05:01:04.833Z,85.36
2017-11-14T05:02:05.171Z,85.36
2017-11-14T05:03:05.188Z,85.36
2017-11-14T05:04:04.860Z,85.45
2017-11-14T05:05:05.205Z,85.45
2017-11-14T05:06:04.878Z,85.36
2017-11-14T05:07:05.243Z,85.45
2017-11-14T05:08:05.237Z,85.64
2017-11-14T05:09:05.253Z,85.26
2017-11-14T05:10:05.261Z,85.55
2017-11-14T05:11:05.271Z,85.36
2017-11-14T05:12:05.283Z,85.26
2017-11-14T05:13:05.299Z,85.45
2017-11-14T05:14:05.304Z,85.17
2017-11-14T05:15:05.078Z,85.55
2017-11-14T05:16:05.324Z,85.26
2017-11-14T05:17:05.006Z,85.36
2017-11-14T05:18:05.350Z,85.26
2017-11-14T05:19:05.363Z,85.26
2017-11-14T05:20:05.371Z,85.36
2017-11-14T05:21:05.384Z,85.26
2017-11-14T05:22:05.390Z,85.26
2017-11-14T05:23:05.449Z,85.26
2017-11-14T05:24:05.413Z,85.26
2017-11-14T05:25:05.432Z,85.26
2017-11-14T05:26:05.438Z,85.26
2017-11-14T05:27:05.449Z,85.26
2017-11-14T05:28:05.482Z,85.17
2017-11-14T05:29:05.133Z,85.26
2017-11-14T05:30:05.145Z,85.55
2017-11-14T05:31:05.496Z,85.36
2017-11-14T05:32:05.544Z,85.36
2017-11-14T05:33:05.179Z,85.26
2017-11-14T05:34:05.533Z,85.26
2017-11-14T05:35:05.537Z,85.26
2017-11-14T05:36:05.545Z,85.17
2017-11-14T05:37:05.555Z,85.26
2017-11-14T05:38:05.573Z,85.07
2017-11-14T05:39:05.576Z,85.55
2017-11-14T05:40:05.588Z,85.07
2017-11-14T05:41:05.268Z,85.36
2017-11-14T05:42:05.615Z,85.17
2017-11-14T05:43:05.619Z,85.36
2017-11-14T05:44:05.630Z,85.36
2017-11-14T05:45:05.307Z,85.45
2017-11-14T05:46:05.316Z,85.26
2017-11-14T05:47:05.669Z,85.64
2017-11-14T05:48:05.340Z,85.45
2017-11-14T05:49:05.683Z,85.55
2017-11-14T05:50:05.361Z,85.45
2017-11-14T05:51:05.373Z,85.55
2017-11-14T05:52:05.381Z,85.45
2017-11-14T05:53:05.732Z,85.55
2017-11-14T05:54:05.744Z,85.83
2017-11-14T05:55:05.415Z,85.55
2017-11-14T05:56:05.770Z,85.45
2017-11-14T05:57:05.774Z,85.55
2017-11-14T05:58:05.785Z,85.36
2017-11-14T05:59:05.797Z,85.83
2017-11-14T06:00:05.470Z,85.55
2017-11-14T06:01:05.821Z,85.64
2017-11-14T06:02:05.892Z,85.74
2017-11-14T06:03:05.836Z,85.55
2017-11-14T06:04:05.851Z,85.83
2017-11-14T06:05:05.525Z,85.74
2017-11-14T06:06:05.536Z,85.55
2017-11-14T06:07:05.881Z,85.74
2017-11-14T06:08:05.902Z,85.64
2017-11-14T06:09:05.912Z,85.64
2017-11-14T06:10:05.915Z,85.55
2017-11-14T06:11:05.937Z,85.36
2017-11-14T06:12:05.937Z,85.36
2017-11-14T06:13:05.948Z,85.64
2017-11-14T06:14:05.959Z,85.45
2017-11-14T06:15:05.982Z,85.45
2017-11-14T06:16:05.981Z,85.64
2017-11-14T06:17:05.992Z,85.45
2017-11-14T06:18:06.003Z,85.74
2017-11-14T06:19:05.680Z,85.55
2017-11-14T06:20:06.023Z,85.55
2017-11-14T06:21:06.035Z,85.64
2017-11-14T06:22:05.707Z,85.45
2017-11-14T06:23:06.055Z,85.45
2017-11-14T06:24:05.734Z,85.74
2017-11-14T06:25:06.078Z,85.93
2017-11-14T06:26:05.754Z,85.64
2017-11-14T06:27:06.100Z,85.64
2017-11-14T06:28:06.109Z,85.83
2017-11-14T06:29:06.129Z,86.02
2017-11-14T06:30:05.798Z,86.11
2017-11-14T06:31:06.138Z,86.21
2017-11-14T06:32:06.154Z,86.21
2017-11-14T06:33:06.172Z,86.3
2017-11-14T06:34:05.843Z,86.3
2017-11-14T06:35:06.191Z,86.21
2017-11-14T06:36:06.199Z,86.49
2017-11-14T06:37:06.213Z,86.4
2017-11-14T06:38:06.224Z,86.21
2017-11-14T06:39:05.892Z,86.4
2017-11-14T06:40:05.904Z,85.93
2017-11-14T06:41:06.268Z,85.74
2017-11-14T06:42:06.260Z,85.64
2017-11-14T06:43:06.277Z,85.55
2017-11-14T06:44:06.291Z,85.64
2017-11-14T06:45:05.961Z,85.64
2017-11-14T06:46:06.310Z,85.93
2017-11-14T06:47:06.321Z,86.4
2017-11-14T06:48:06.329Z,86.4
2017-11-14T06:49:06.356Z,86.4
2017-11-14T06:50:06.353Z,86.02
2017-11-14T06:51:06.026Z,86.3
2017-11-14T06:52:06.037Z,85.55
2017-11-14T06:53:06.385Z,85.26
2017-11-14T06:54:06.060Z,85.36
2017-11-14T06:55:06.407Z,85.45
2017-11-14T06:56:06.081Z,85.83
2017-11-14T06:57:06.423Z,85.36
2017-11-14T06:58:06.435Z,85.45
2017-11-14T06:59:06.468Z,85.07
2017-11-14T07:00:06.459Z,84.88
2017-11-14T07:01:06.511Z,85.26
2017-11-14T07:02:06.480Z,85.07
2017-11-14T07:03:06.491Z,85.17
2017-11-14T07:04:06.504Z,84.88
2017-11-14T07:05:06.511Z,84.88
2017-11-14T07:06:06.534Z,85.17
2017-11-14T07:07:06.538Z,84.98
2017-11-14T07:08:06.545Z,85.26
2017-11-14T07:09:06.556Z,85.17
2017-11-14T07:10:06.577Z,84.88
2017-11-14T07:11:06.575Z,84.59
2017-11-14T07:12:06.600Z,84.69
2017-11-14T07:13:06.266Z,84.59
2017-11-14T07:14:06.613Z,84.69
2017-11-14T07:15:06.286Z,84.88
2017-11-14T07:16:06.292Z,84.98
2017-11-14T07:17:06.310Z,84.88
2017-11-14T07:18:06.655Z,84.98
2017-11-14T07:19:06.675Z,84.59
2017-11-14T07:20:06.673Z,84.88
2017-11-14T07:21:06.691Z,84.88
2017-11-14T07:22:06.699Z,84.59
2017-11-14T07:23:06.709Z,85.26
2017-11-14T07:24:06.379Z,85.55
2017-11-14T07:25:06.736Z,86.3
2017-11-14T07:26:06.751Z,86.21
2017-11-14T07:27:06.415Z,86.49
2017-11-14T07:28:06.789Z,86.4
2017-11-14T07:29:06.781Z,86.4
2017-11-14T07:30:06.783Z,86.3
2017-11-14T07:31:06.461Z,86.21
2017-11-14T07:32:06.805Z,86.68
2017-11-14T07:33:06.821Z,86.59
2017-11-14T07:34:06.838Z,87.16
2017-11-14T07:35:06.841Z,86.97
2017-11-14T07:36:06.513Z,87.06
2017-11-14T07:37:06.524Z,86.97
2017-11-14T07:38:06.870Z,87.16
2017-11-14T07:39:06.883Z,87.16
2017-11-14T07:40:06.558Z,86.97
2017-11-14T07:41:06.906Z,86.87
2017-11-14T07:42:06.578Z,86.87
2017-11-14T07:43:06.592Z,86.87
2017-11-14T07:44:06.938Z,86.3
2017-11-14T07:45:06.947Z,86.4
2017-11-14T07:46:06.958Z,86.4
2017-11-14T07:47:06.967Z,86.68
2017-11-14T07:48:06.984Z,86.21
2017-11-14T07:49:06.653Z,86.59
2017-11-14T07:50:06.997Z,86.59
2017-11-14T07:51:07.018Z,86.49
2017-11-14T07:52:07.027Z,86.21
2017-11-14T07:53:07.033Z,86.49
2017-11-14T07:54:07.055Z,86.21
2017-11-14T07:55:06.717Z,86.49
2017-11-14T07:56:06.726Z,86.49
2017-11-14T07:57:06.737Z,86.49
2017-11-14T07:58:07.089Z,86.59
2017-11-14T07:59:06.761Z,86.59
2017-11-14T08:00:07.107Z,86.4
2017-11-14T08:01:06.785Z,86.59
2017-11-14T08:02:06.793Z,86.21
2017-11-14T08:03:07.146Z,86.21
2017-11-14T08:04:07.149Z,85.55
2017-11-14T08:05:07.160Z,85.74
2017-11-14T08:06:07.175Z,85.55
2017-11-14T08:07:07.181Z,85.64
2017-11-14T08:08:07.192Z,85.74
2017-11-14T08:09:07.203Z,85.64
2017-11-14T08:10:07.213Z,85.64
2017-11-14T08:11:06.889Z,85.36
2017-11-14T08:12:07.244Z,85.55
2017-11-14T08:13:07.253Z,85.55
2017-11-14T08:14:07.264Z,85.26
2017-11-14T08:15:07.275Z,85.64
2017-11-14T08:16:07.283Z,85.93
2017-11-14T08:17:07.288Z,85.83
2017-11-14T08:18:07.300Z,85.36
2017-11-14T08:19:07.315Z,85.45
2017-11-14T08:20:07.328Z,85.45
2017-11-14T08:21:07.335Z,85.26
2017-11-14T08:22:07.342Z,85.26
2017-11-14T08:23:07.361Z,85.17
2017-11-14T08:24:07.366Z,84.41
2017-11-14T08:25:07.384Z,84.69
2017-11-14T08:26:07.385Z,84.88
2017-11-14T08:27:07.404Z,84.98
2017-11-14T08:28:07.411Z,84.22
2017-11-14T08:29:07.419Z,84.59
2017-11-14T08:30:07.433Z,84.22
2017-11-14T08:31:07.443Z,84.41
2017-11-14T08:32:07.448Z,84.12
2017-11-14T08:33:07.461Z,84.88
2017-11-14T08:34:07.483Z,84.12
2017-11-14T08:35:07.485Z,84.12
2017-11-14T08:36:07.501Z,84.03
2017-11-14T08:37:07.170Z,84.22
2017-11-14T08:38:07.529Z,83.84
2017-11-14T08:39:07.527Z,84.22
2017-11-14T08:40:07.536Z,83.94
2017-11-14T08:41:07.559Z,84.31
2017-11-14T08:42:07.561Z,84.03
2017-11-14T08:43:07.577Z,84.31
2017-11-14T08:44:07.596Z,84.03
2017-11-14T08:45:07.253Z,84.59
2017-11-14T08:46:07.285Z,84.41
2017-11-14T08:47:07.613Z,84.45
2017-11-14T08:48:07.290Z,84.92
2017-11-14T08:49:07.635Z,84.83
2017-11-14T08:50:07.653Z,84.45
2017-11-14T08:51:07.657Z,84.45
2017-11-14T08:52:07.330Z,84.45
2017-11-14T08:53:07.680Z,84.83
2017-11-14T08:54:07.693Z,84.64
2017-11-14T08:55:07.703Z,84.64
2017-11-14T08:56:07.712Z,84.74
2017-11-14T08:57:07.730Z,85.02
2017-11-14T08:58:07.742Z,84.74
2017-11-14T08:59:07.746Z,84.92
2017-11-14T09:00:07.420Z,85.02
2017-11-14T09:01:07.427Z,84.45
2017-11-14T09:02:07.777Z,84.36
2017-11-14T09:03:07.458Z,84.07
2017-11-14T09:04:07.468Z,84.45
2017-11-14T09:05:07.814Z,83.97
2017-11-14T09:06:07.823Z,84.17
2017-11-14T09:07:07.832Z,84.45
2017-11-14T09:08:07.844Z,84.17
2017-11-14T09:09:07.859Z,84.26
2017-11-14T09:10:07.872Z,84.17
2017-11-14T09:11:07.879Z,84.64
2017-11-14T09:12:07.890Z,84.26
2017-11-14T09:13:07.907Z,84.64
2017-11-14T09:14:07.583Z,84.45
2017-11-14T09:15:07.921Z,83.97
2017-11-14T09:16:07.935Z,84.45
2017-11-14T09:17:07.990Z,85.02
2017-11-14T09:18:07.620Z,84.74
2017-11-14T09:19:07.965Z,84.74
2017-11-14T09:20:07.637Z,84.64
2017-11-14T09:21:07.650Z,84.68
2017-11-14T09:22:07.667Z,84.59
2017-11-14T09:23:08.012Z,84.49
2017-11-14T09:24:08.024Z,84.68
2017-11-14T09:25:07.692Z,84.87
2017-11-14T09:26:08.043Z,84.49
2017-11-14T09:27:08.053Z,84.87
2017-11-14T09:28:08.063Z,84.97
2017-11-14T09:29:07.739Z,84.97
2017-11-14T09:30:08.089Z,84.3
2017-11-14T09:31:08.113Z,84.49
2017-11-14T09:32:08.106Z,84.49
2017-11-14T09:33:08.134Z,84.3
2017-11-14T09:34:08.130Z,84.68
2017-11-14T09:35:08.147Z,84.4
2017-11-14T09:36:07.817Z,84.3
2017-11-14T09:37:08.215Z,85.06
2017-11-14T09:38:08.174Z,84.78
2017-11-14T09:39:08.191Z,84.78
2017-11-14T09:40:08.196Z,84.87
2017-11-14T09:41:08.228Z,84.59
2017-11-14T09:42:08.221Z,84.78
2017-11-14T09:43:08.249Z,85.06
2017-11-14T09:44:07.910Z,84.87
2017-11-14T09:45:07.925Z,84.97
2017-11-14T09:46:07.927Z,84.78
2017-11-14T09:47:08.278Z,84.68
2017-11-14T09:48:08.289Z,84.87
2017-11-14T09:49:08.300Z,84.3
2017-11-14T09:50:08.336Z,84.68
2017-11-14T09:51:08.333Z,84.3
2017-11-14T09:52:08.010Z,84.3
2017-11-14T09:53:08.349Z,84.3
2017-11-14T09:54:08.021Z,84.21
2017-11-14T09:55:08.369Z,83.92
2017-11-14T09:56:08.046Z,83.92
2017-11-14T09:57:08.395Z,83.92
2017-11-14T09:58:08.402Z,83.73
2017-11-14T09:59:08.412Z,84.3
2017-11-14T10:00:08.428Z,83.92
2017-11-14T10:01:08.436Z,83.68
2017-11-14T10:02:08.452Z,83.68
2017-11-14T10:03:08.469Z,83.73
2017-11-14T10:04:08.472Z,83.78
2017-11-14T10:05:08.480Z,83.68
2017-11-14T10:06:08.493Z,84.53
2017-11-14T10:07:08.504Z,83.97
2017-11-14T10:08:08.519Z,84.06
2017-11-14T10:09:08.193Z,83.87
2017-11-14T10:10:08.543Z,83.59
2017-11-14T10:11:08.551Z,83.97
2017-11-14T10:12:08.571Z,83.59
2017-11-14T10:13:08.601Z,83.87
2017-11-14T10:14:08.601Z,83.68
2017-11-14T10:15:08.608Z,84.16
2017-11-14T10:16:08.610Z,84.16
2017-11-14T10:17:08.635Z,84.34
2017-11-14T10:18:08.629Z,84.06
2017-11-14T10:19:08.650Z,83.78
2017-11-14T10:20:08.321Z,83.49
2017-11-14T10:21:08.667Z,84.53
2017-11-14T10:22:08.369Z,83.59
2017-11-14T10:23:08.362Z,83.68
2017-11-14T10:24:08.704Z,84.06
2017-11-14T10:25:08.727Z,83.68
2017-11-14T10:26:08.731Z,83.78
2017-11-14T10:27:08.749Z,83.87
2017-11-14T10:28:08.432Z,83.87
2017-11-14T10:29:08.768Z,84.06
2017-11-14T10:30:08.788Z,84.06
2017-11-14T10:31:08.786Z,83.78
2017-11-14T10:32:08.794Z,83.91
2017-11-14T10:33:08.817Z,84.01
2017-11-14T10:34:08.820Z,83.82
2017-11-14T10:35:08.833Z,84.2
2017-11-14T10:36:08.846Z,83.62
2017-11-14T10:37:08.856Z,84.01
2017-11-14T10:38:08.537Z,84.01
2017-11-14T10:39:08.924Z,84.1
2017-11-14T10:40:08.892Z,83.53
2017-11-14T10:41:08.909Z,83.34
2017-11-14T10:42:08.579Z,83.72
2017-11-14T10:43:08.930Z,83.34
2017-11-14T10:44:08.942Z,83.25
2017-11-14T10:45:08.953Z,83.72
2017-11-14T10:46:08.963Z,83.25
2017-11-14T10:47:08.972Z,83.06
2017-11-14T10:48:08.654Z,83.44
2017-11-14T10:49:09.003Z,83.15
2017-11-14T10:50:09.031Z,83.34
2017-11-14T10:51:09.031Z,83.29
2017-11-14T10:52:08.712Z,83.29
2017-11-14T10:53:09.077Z,83.29
2017-11-14T10:54:09.064Z,83.34
2017-11-14T10:55:09.073Z,83.1
2017-11-14T10:56:09.098Z,82.91
2017-11-14T10:57:09.107Z,82.91
2017-11-14T10:58:09.112Z,82.71
2017-11-14T10:59:09.131Z,82.71
2017-11-14T11:00:09.141Z,83
2017-11-14T11:01:09.150Z,82.91
2017-11-14T11:02:09.177Z,82.53
2017-11-14T11:03:09.176Z,82.91
2017-11-14T11:04:09.185Z,82.91
2017-11-14T11:05:09.198Z,83.29
2017-11-14T11:06:09.268Z,82.62
2017-11-14T11:07:09.223Z,83.19
2017-11-14T11:08:09.247Z,82.34
2017-11-14T11:09:09.244Z,82.62
2017-11-14T11:10:09.266Z,82.71
2017-11-14T11:11:09.282Z,82.05
2017-11-14T11:12:09.292Z,81.96
2017-11-14T11:13:09.307Z,82.15
2017-11-14T11:14:09.313Z,82.15
2017-11-14T11:15:08.986Z,82.34
2017-11-14T11:16:09.340Z,82.15
2017-11-14T11:17:09.349Z,82.05
2017-11-14T11:18:09.359Z,81.67
2017-11-14T11:19:09.371Z,81.48
2017-11-14T11:20:09.411Z,81.86
2017-11-14T11:21:09.404Z,82.05
2017-11-14T11:22:09.074Z,81.58
2017-11-14T11:23:09.422Z,81.86
2017-11-14T11:24:09.438Z,81.1
2017-11-14T11:25:09.455Z,81.2
2017-11-14T11:26:09.465Z,81.2
2017-11-14T11:27:09.490Z,81.01
2017-11-14T11:28:09.487Z,81.2
2017-11-14T11:29:09.501Z,81.01
2017-11-14T11:30:09.516Z,81.38
2017-11-14T11:31:09.528Z,81.24
2017-11-14T11:32:09.550Z,81.05
2017-11-14T11:33:09.217Z,81.05
2017-11-14T11:34:09.570Z,80.86
2017-11-14T11:35:09.586Z,80.95
2017-11-14T11:36:09.592Z,80.76
2017-11-14T11:37:09.605Z,80.86
2017-11-14T11:38:09.279Z,80.76
2017-11-14T11:39:09.641Z,80.76
2017-11-14T11:40:09.646Z,80.86
2017-11-14T11:41:09.663Z,80.66
2017-11-14T11:42:09.670Z,80.66
2017-11-14T11:43:09.692Z,80.66
2017-11-14T11:44:09.698Z,79.81
2017-11-14T11:45:09.710Z,79.91
2017-11-14T11:46:09.734Z,80.1
2017-11-14T11:47:09.738Z,80.1
2017-11-14T11:48:09.747Z,79.52
2017-11-14T11:49:09.761Z,79.62
2017-11-14T11:50:09.771Z,79.62
2017-11-14T11:51:09.798Z,79.43
2017-11-14T11:52:09.798Z,79.43
2017-11-14T11:53:09.814Z,79.52
2017-11-14T11:54:09.487Z,79.24
2017-11-14T11:55:09.848Z,79.19
2017-11-14T11:56:09.869Z,78.96
2017-11-14T11:57:09.532Z,79.28
2017-11-14T11:58:09.879Z,79.09
2017-11-14T11:59:09.893Z,78.99
2017-11-14T12:00:09.912Z,78.61
2017-11-14T12:01:09.922Z,78.61
2017-11-14T12:02:09.930Z,78.61
2017-11-14T12:03:09.951Z,78.71
2017-11-14T12:04:09.957Z,78.99
2017-11-14T12:05:09.972Z,78.23
2017-11-14T12:06:09.987Z,78.42
2017-11-14T12:07:10.004Z,78.33
2017-11-14T12:08:10.011Z,78.33
2017-11-14T12:09:10.032Z,77.85
2017-11-14T12:10:10.037Z,77.37
2017-11-14T12:11:10.077Z,77.56
2017-11-14T12:12:10.070Z,77.28
2017-11-14T12:13:10.087Z,77.19
2017-11-14T12:14:10.096Z,77.66
2017-11-14T12:15:10.103Z,77.95
2017-11-14T12:16:10.125Z,77.37
2017-11-14T12:17:10.133Z,77.19
2017-11-14T12:18:09.812Z,77.95
2017-11-14T12:19:10.161Z,77.66
2017-11-14T12:20:10.178Z,77.09
2017-11-14T12:21:10.189Z,76.9
2017-11-14T12:22:10.201Z,77.47
2017-11-14T12:23:10.225Z,77.19
2017-11-14T12:24:09.893Z,77.37
2017-11-14T12:25:09.907Z,77.56
2017-11-14T12:26:10.252Z,77.19
2017-11-14T12:27:10.270Z,77.37
2017-11-14T12:28:10.286Z,77.56
2017-11-14T12:29:09.957Z,77.19
2017-11-14T12:30:10.316Z,77.19
2017-11-14T12:31:10.325Z,77.66
2017-11-14T12:32:10.345Z,77.47
2017-11-14T12:33:10.351Z,77.19
2017-11-14T12:34:10.368Z,77.56
2017-11-14T12:35:10.381Z,77.47
2017-11-14T12:36:10.401Z,77.28
2017-11-14T12:37:10.452Z,77.47
2017-11-14T12:38:10.428Z,77.76
2017-11-14T12:39:10.436Z,77.37
2017-11-14T12:40:10.451Z,76.71
2017-11-14T12:41:10.460Z,76.52
2017-11-14T12:42:10.474Z,75.85
2017-11-14T12:43:10.501Z,76.9
2017-11-14T12:44:10.505Z,76.04
2017-11-14T12:45:10.521Z,76.14
2017-11-14T12:46:10.529Z,76.14
2017-11-14T12:47:10.546Z,76.33
2017-11-14T12:48:10.559Z,76.23
2017-11-14T12:49:10.578Z,76.23
2017-11-14T12:50:10.251Z,76.23
2017-11-14T12:51:10.263Z,75.95
2017-11-14T12:52:10.619Z,75.57
2017-11-14T12:53:10.632Z,75.95
2017-11-14T12:54:10.643Z,75.23